sensor_id;sensor_type;location;lat;lon;timestamp;P1;durP1;ratioP1;P2;durP2;ratioP2
33006;SDS011;19361;51.598;7.650;2023-06-22T00:05:07;5.32;;;4.70;;
33006;SDS011;19361;51.598;7.650;2023-06-22T00:10:29;5.53;;;5.00;;
33006;SDS011;19361;51.598;7.650;2023-06-22T00:15:50;7.18;;;4.80;;
33006;SDS011;19361;51.598;7.650;2023-06-22T00:21:11;5.30;;;4.80;;
33006;SDS011;19361;51.598;7.650;2023-06-22T00:26:33;5.43;;;4.72;;
33006;SDS011;19361;51.598;7.650;2023-06-22T00:31:54;7.00;;;4.97;;
33006;SDS011;19361;51.598;7.650;2023-06-22T00:37:15;9.05;;;5.70;;
33006;SDS011;19361;51.598;7.650;2023-06-22T00:42:36;5.22;;;4.72;;
33006;SDS011;19361;51.598;7.650;2023-06-22T00:47:58;5.50;;;4.95;;
33006;SDS011;19361;51.598;7.650;2023-06-22T00:53:20;7.70;;;5.55;;
33006;SDS011;19361;51.598;7.650;2023-06-22T00:58:41;6.68;;;4.82;;
33006;SDS011;19361;51.598;7.650;2023-06-22T01:04:02;4.97;;;4.57;;
33006;SDS011;19361;51.598;7.650;2023-06-22T01:09:27;8.52;;;4.95;;
33006;SDS011;19361;51.598;7.650;2023-06-22T01:14:55;5.65;;;5.05;;
33006;SDS011;19361;51.598;7.650;2023-06-22T01:20:26;6.25;;;5.65;;
33006;SDS011;19361;51.598;7.650;2023-06-22T01:32:04;5.30;;;4.85;;
33006;SDS011;19361;51.598;7.650;2023-06-22T01:37:27;7.15;;;5.35;;
33006;SDS011;19361;51.598;7.650;2023-06-22T01:42:49;7.35;;;5.72;;
33006;SDS011;19361;51.598;7.650;2023-06-22T01:48:11;12.55;;;5.93;;
33006;SDS011;19361;51.598;7.650;2023-06-22T01:53:32;9.85;;;6.03;;
33006;SDS011;19361;51.598;7.650;2023-06-22T01:59:12;7.25;;;5.55;;
33006;SDS011;19361;51.598;7.650;2023-06-22T02:04:59;5.97;;;5.45;;
33006;SDS011;19361;51.598;7.650;2023-06-22T02:10:27;7.50;;;6.80;;
33006;SDS011;19361;51.598;7.650;2023-06-22T02:15:49;9.20;;;6.85;;
33006;SDS011;19361;51.598;7.650;2023-06-22T02:21:10;8.57;;;6.10;;
33006;SDS011;19361;51.598;7.650;2023-06-22T02:26:31;9.00;;;6.28;;
33006;SDS011;19361;51.598;7.650;2023-06-22T02:31:53;7.93;;;6.47;;
33006;SDS011;19361;51.598;7.650;2023-06-22T02:37:15;7.60;;;6.85;;
33006;SDS011;19361;51.598;7.650;2023-06-22T02:42:37;7.30;;;6.60;;
33006;SDS011;19361;51.598;7.650;2023-06-22T02:48:00;10.00;;;7.13;;
33006;SDS011;19361;51.598;7.650;2023-06-22T02:53:21;7.70;;;6.95;;
33006;SDS011;19361;51.598;7.650;2023-06-22T02:58:42;8.07;;;7.28;;
33006;SDS011;19361;51.598;7.650;2023-06-22T03:04:03;9.48;;;7.75;;
33006;SDS011;19361;51.598;7.650;2023-06-22T03:09:25;8.63;;;7.75;;
33006;SDS011;19361;51.598;7.650;2023-06-22T03:14:46;10.15;;;8.60;;
33006;SDS011;19361;51.598;7.650;2023-06-22T03:20:07;9.07;;;7.75;;
33006;SDS011;19361;51.598;7.650;2023-06-22T03:25:33;9.50;;;8.60;;
33006;SDS011;19361;51.598;7.650;2023-06-22T03:30:59;9.10;;;7.97;;
33006;SDS011;19361;51.598;7.650;2023-06-22T03:36:20;10.45;;;8.35;;
33006;SDS011;19361;51.598;7.650;2023-06-22T03:41:41;11.25;;;8.07;;
33006;SDS011;19361;51.598;7.650;2023-06-22T03:47:02;8.10;;;7.30;;
33006;SDS011;19361;51.598;7.650;2023-06-22T03:52:24;10.00;;;7.90;;
33006;SDS011;19361;51.598;7.650;2023-06-22T03:57:46;8.35;;;7.20;;
33006;SDS011;19361;51.598;7.650;2023-06-22T04:03:07;9.32;;;8.25;;
33006;SDS011;19361;51.598;7.650;2023-06-22T04:08:28;8.63;;;7.63;;
33006;SDS011;19361;51.598;7.650;2023-06-22T04:13:49;15.40;;;8.80;;
33006;SDS011;19361;51.598;7.650;2023-06-22T04:19:11;9.20;;;8.32;;
33006;SDS011;19361;51.598;7.650;2023-06-22T04:24:38;9.18;;;8.30;;
33006;SDS011;19361;51.598;7.650;2023-06-22T04:29:59;10.48;;;8.45;;
33006;SDS011;19361;51.598;7.650;2023-06-22T04:35:20;10.70;;;9.10;;
33006;SDS011;19361;51.598;7.650;2023-06-22T04:40:42;10.75;;;9.07;;
33006;SDS011;19361;51.598;7.650;2023-06-22T04:46:03;11.15;;;8.68;;
33006;SDS011;19361;51.598;7.650;2023-06-22T04:51:24;11.95;;;8.93;;
33006;SDS011;19361;51.598;7.650;2023-06-22T04:56:51;10.32;;;9.10;;
33006;SDS011;19361;51.598;7.650;2023-06-22T05:02:18;9.75;;;8.55;;
33006;SDS011;19361;51.598;7.650;2023-06-22T05:07:42;11.02;;;9.93;;
33006;SDS011;19361;51.598;7.650;2023-06-22T05:13:05;12.35;;;9.35;;
33006;SDS011;19361;51.598;7.650;2023-06-22T05:18:27;10.82;;;9.73;;
33006;SDS011;19361;51.598;7.650;2023-06-22T05:23:50;10.23;;;9.15;;
33006;SDS011;19361;51.598;7.650;2023-06-22T05:29:12;12.02;;;10.57;;
33006;SDS011;19361;51.598;7.650;2023-06-22T05:34:33;11.95;;;10.63;;
33006;SDS011;19361;51.598;7.650;2023-06-22T05:39:54;12.55;;;9.73;;
33006;SDS011;19361;51.598;7.650;2023-06-22T05:45:15;10.98;;;8.88;;
33006;SDS011;19361;51.598;7.650;2023-06-22T05:50:36;9.23;;;8.27;;
33006;SDS011;19361;51.598;7.650;2023-06-22T05:55:58;12.05;;;8.25;;
33006;SDS011;19361;51.598;7.650;2023-06-22T06:01:19;9.82;;;8.05;;
33006;SDS011;19361;51.598;7.650;2023-06-22T06:06:40;10.00;;;8.25;;
33006;SDS011;19361;51.598;7.650;2023-06-22T06:12:01;9.88;;;7.82;;
33006;SDS011;19361;51.598;7.650;2023-06-22T06:17:23;15.93;;;7.80;;
33006;SDS011;19361;51.598;7.650;2023-06-22T06:22:44;9.68;;;7.78;;
33006;SDS011;19361;51.598;7.650;2023-06-22T06:28:06;8.48;;;7.38;;
33006;SDS011;19361;51.598;7.650;2023-06-22T06:33:27;8.82;;;7.47;;
33006;SDS011;19361;51.598;7.650;2023-06-22T06:38:48;11.18;;;8.25;;
33006;SDS011;19361;51.598;7.650;2023-06-22T06:44:09;10.55;;;9.07;;
33006;SDS011;19361;51.598;7.650;2023-06-22T06:49:30;9.55;;;8.50;;
33006;SDS011;19361;51.598;7.650;2023-06-22T06:54:51;12.95;;;8.32;;
33006;SDS011;19361;51.598;7.650;2023-06-22T07:00:12;12.73;;;8.90;;
33006;SDS011;19361;51.598;7.650;2023-06-22T07:05:35;13.93;;;10.00;;
33006;SDS011;19361;51.598;7.650;2023-06-22T07:10:56;13.40;;;11.07;;
33006;SDS011;19361;51.598;7.650;2023-06-22T07:16:18;12.98;;;10.85;;
33006;SDS011;19361;51.598;7.650;2023-06-22T07:21:39;18.00;;;12.80;;
33006;SDS011;19361;51.598;7.650;2023-06-22T07:27:00;15.95;;;11.30;;
33006;SDS011;19361;51.598;7.650;2023-06-22T07:32:22;13.85;;;12.35;;
33006;SDS011;19361;51.598;7.650;2023-06-22T07:37:43;14.23;;;12.50;;
33006;SDS011;19361;51.598;7.650;2023-06-22T07:43:05;15.85;;;11.85;;
33006;SDS011;19361;51.598;7.650;2023-06-22T07:48:26;13.73;;;12.32;;
33006;SDS011;19361;51.598;7.650;2023-06-22T07:53:47;14.90;;;12.27;;
33006;SDS011;19361;51.598;7.650;2023-06-22T07:59:09;12.38;;;11.18;;
33006;SDS011;19361;51.598;7.650;2023-06-22T08:04:30;13.77;;;12.48;;
33006;SDS011;19361;51.598;7.650;2023-06-22T08:09:55;17.48;;;14.80;;
33006;SDS011;19361;51.598;7.650;2023-06-22T08:15:16;15.23;;;13.18;;
33006;SDS011;19361;51.598;7.650;2023-06-22T08:20:37;17.67;;;14.75;;
33006;SDS011;19361;51.598;7.650;2023-06-22T08:25:58;17.35;;;15.35;;
33006;SDS011;19361;51.598;7.650;2023-06-22T08:31:19;22.00;;;16.95;;
33006;SDS011;19361;51.598;7.650;2023-06-22T08:36:40;19.73;;;15.88;;
33006;SDS011;19361;51.598;7.650;2023-06-22T08:42:05;18.95;;;15.32;;
33006;SDS011;19361;51.598;7.650;2023-06-22T08:47:27;18.48;;;16.48;;
33006;SDS011;19361;51.598;7.650;2023-06-22T08:52:49;19.45;;;14.20;;
33006;SDS011;19361;51.598;7.650;2023-06-22T08:58:10;13.15;;;11.95;;
33006;SDS011;19361;51.598;7.650;2023-06-22T09:03:31;15.63;;;14.00;;
33006;SDS011;19361;51.598;7.650;2023-06-22T09:08:53;11.18;;;10.18;;
33006;SDS011;19361;51.598;7.650;2023-06-22T09:14:14;14.65;;;10.73;;
33006;SDS011;19361;51.598;7.650;2023-06-22T09:19:35;13.32;;;9.73;;
33006;SDS011;19361;51.598;7.650;2023-06-22T09:24:56;11.30;;;9.95;;
33006;SDS011;19361;51.598;7.650;2023-06-22T09:30:17;11.82;;;9.77;;
33006;SDS011;19361;51.598;7.650;2023-06-22T09:35:38;11.63;;;9.38;;
33006;SDS011;19361;51.598;7.650;2023-06-22T09:40:59;10.57;;;9.68;;
33006;SDS011;19361;51.598;7.650;2023-06-22T09:46:20;9.15;;;8.35;;
33006;SDS011;19361;51.598;7.650;2023-06-22T09:51:45;10.20;;;7.57;;
33006;SDS011;19361;51.598;7.650;2023-06-22T09:57:06;7.50;;;6.90;;
33006;SDS011;19361;51.598;7.650;2023-06-22T10:02:27;8.13;;;7.07;;
33006;SDS011;19361;51.598;7.650;2023-06-22T10:07:49;8.80;;;7.90;;
33006;SDS011;19361;51.598;7.650;2023-06-22T10:13:11;8.65;;;6.53;;
33006;SDS011;19361;51.598;7.650;2023-06-22T10:18:32;7.10;;;6.40;;
33006;SDS011;19361;51.598;7.650;2023-06-22T10:23:53;9.45;;;7.53;;
33006;SDS011;19361;51.598;7.650;2023-06-22T10:29:16;8.40;;;7.68;;
33006;SDS011;19361;51.598;7.650;2023-06-22T10:34:37;8.18;;;7.32;;
33006;SDS011;19361;51.598;7.650;2023-06-22T10:39:58;8.18;;;7.00;;
33006;SDS011;19361;51.598;7.650;2023-06-22T10:45:19;7.78;;;6.95;;
33006;SDS011;19361;51.598;7.650;2023-06-22T10:50:40;12.15;;;7.30;;
33006;SDS011;19361;51.598;7.650;2023-06-22T10:56:01;8.30;;;7.57;;
33006;SDS011;19361;51.598;7.650;2023-06-22T11:01:22;8.27;;;6.25;;
33006;SDS011;19361;51.598;7.650;2023-06-22T11:06:43;8.38;;;6.40;;
33006;SDS011;19361;51.598;7.650;2023-06-22T11:12:04;5.78;;;5.38;;
33006;SDS011;19361;51.598;7.650;2023-06-22T11:17:26;5.65;;;5.13;;
33006;SDS011;19361;51.598;7.650;2023-06-22T11:22:47;6.32;;;5.82;;
33006;SDS011;19361;51.598;7.650;2023-06-22T11:28:09;6.07;;;5.68;;
33006;SDS011;19361;51.598;7.650;2023-06-22T11:33:30;9.30;;;6.40;;
33006;SDS011;19361;51.598;7.650;2023-06-22T11:38:51;6.72;;;6.13;;
33006;SDS011;19361;51.598;7.650;2023-06-22T11:44:12;10.18;;;7.13;;
33006;SDS011;19361;51.598;7.650;2023-06-22T11:49:33;9.32;;;6.80;;
33006;SDS011;19361;51.598;7.650;2023-06-22T11:54:54;13.90;;;7.75;;
33006;SDS011;19361;51.598;7.650;2023-06-22T12:00:15;19.55;;;8.35;;
33006;SDS011;19361;51.598;7.650;2023-06-22T12:05:38;25.85;;;9.95;;
33006;SDS011;19361;51.598;7.650;2023-06-22T12:10:59;15.20;;;9.40;;
33006;SDS011;19361;51.598;7.650;2023-06-22T12:16:20;20.85;;;10.10;;
33006;SDS011;19361;51.598;7.650;2023-06-22T12:21:42;17.42;;;9.70;;
33006;SDS011;19361;51.598;7.650;2023-06-22T12:27:05;17.00;;;10.10;;
33006;SDS011;19361;51.598;7.650;2023-06-22T12:32:27;14.45;;;9.75;;
33006;SDS011;19361;51.598;7.650;2023-06-22T12:37:48;16.90;;;10.15;;
33006;SDS011;19361;51.598;7.650;2023-06-22T12:43:09;14.07;;;9.55;;
33006;SDS011;19361;51.598;7.650;2023-06-22T12:48:30;12.55;;;9.43;;
33006;SDS011;19361;51.598;7.650;2023-06-22T12:53:51;16.35;;;10.73;;
33006;SDS011;19361;51.598;7.650;2023-06-22T12:59:12;20.80;;;12.45;;
33006;SDS011;19361;51.598;7.650;2023-06-22T13:04:33;15.63;;;11.52;;
33006;SDS011;19361;51.598;7.650;2023-06-22T13:09:55;15.38;;;10.85;;
33006;SDS011;19361;51.598;7.650;2023-06-22T13:15:16;14.13;;;11.35;;
33006;SDS011;19361;51.598;7.650;2023-06-22T13:20:37;15.90;;;10.60;;
33006;SDS011;19361;51.598;7.650;2023-06-22T13:25:58;15.52;;;11.10;;
33006;SDS011;19361;51.598;7.650;2023-06-22T13:31:20;12.65;;;11.30;;
33006;SDS011;19361;51.598;7.650;2023-06-22T13:36:42;13.40;;;11.32;;
33006;SDS011;19361;51.598;7.650;2023-06-22T13:42:03;11.52;;;10.35;;
33006;SDS011;19361;51.598;7.650;2023-06-22T13:47:24;12.18;;;10.95;;
33006;SDS011;19361;51.598;7.650;2023-06-22T13:52:45;11.93;;;10.65;;
33006;SDS011;19361;51.598;7.650;2023-06-22T13:58:06;13.35;;;11.48;;
33006;SDS011;19361;51.598;7.650;2023-06-22T14:03:27;14.15;;;11.18;;
33006;SDS011;19361;51.598;7.650;2023-06-22T14:08:48;12.23;;;11.07;;
33006;SDS011;19361;51.598;7.650;2023-06-22T14:14:11;12.40;;;11.18;;
33006;SDS011;19361;51.598;7.650;2023-06-22T14:19:32;12.52;;;11.18;;
33006;SDS011;19361;51.598;7.650;2023-06-22T14:24:53;13.40;;;12.10;;
33006;SDS011;19361;51.598;7.650;2023-06-22T14:30:16;13.13;;;11.55;;
33006;SDS011;19361;51.598;7.650;2023-06-22T14:35:37;14.05;;;12.00;;
33006;SDS011;19361;51.598;7.650;2023-06-22T14:40:58;12.40;;;11.20;;
33006;SDS011;19361;51.598;7.650;2023-06-22T14:46:19;15.05;;;12.32;;
33006;SDS011;19361;51.598;7.650;2023-06-22T14:51:40;15.00;;;13.50;;
33006;SDS011;19361;51.598;7.650;2023-06-22T14:57:02;15.68;;;14.02;;
33006;SDS011;19361;51.598;7.650;2023-06-22T15:02:23;16.55;;;14.77;;
33006;SDS011;19361;51.598;7.650;2023-06-22T15:07:44;14.73;;;13.43;;
33006;SDS011;19361;51.598;7.650;2023-06-22T15:13:05;15.75;;;14.10;;
33006;SDS011;19361;51.598;7.650;2023-06-22T15:18:26;16.20;;;14.57;;
33006;SDS011;19361;51.598;7.650;2023-06-22T15:23:47;16.42;;;14.73;;
33006;SDS011;19361;51.598;7.650;2023-06-22T15:29:08;16.50;;;14.75;;
33006;SDS011;19361;51.598;7.650;2023-06-22T15:34:29;15.65;;;14.05;;
33006;SDS011;19361;51.598;7.650;2023-06-22T15:39:50;16.77;;;15.13;;
33006;SDS011;19361;51.598;7.650;2023-06-22T15:45:12;16.67;;;15.00;;
33006;SDS011;19361;51.598;7.650;2023-06-22T15:50:33;15.95;;;14.25;;
33006;SDS011;19361;51.598;7.650;2023-06-22T15:55:54;14.80;;;13.38;;
33006;SDS011;19361;51.598;7.650;2023-06-22T16:01:15;17.88;;;13.38;;
33006;SDS011;19361;51.598;7.650;2023-06-22T16:06:36;14.65;;;13.20;;
33006;SDS011;19361;51.598;7.650;2023-06-22T16:11:57;13.73;;;12.35;;
33006;SDS011;19361;51.598;7.650;2023-06-22T16:17:18;14.32;;;12.85;;
33006;SDS011;19361;51.598;7.650;2023-06-22T16:22:39;14.30;;;13.00;;
33006;SDS011;19361;51.598;7.650;2023-06-22T16:28:00;18.67;;;14.85;;
33006;SDS011;19361;51.598;7.650;2023-06-22T16:33:22;18.75;;;14.55;;
33006;SDS011;19361;51.598;7.650;2023-06-22T16:38:43;14.15;;;12.68;;
33006;SDS011;19361;51.598;7.650;2023-06-22T16:44:04;19.38;;;13.63;;
33006;SDS011;19361;51.598;7.650;2023-06-22T16:49:26;18.30;;;14.40;;
33006;SDS011;19361;51.598;7.650;2023-06-22T16:54:47;21.38;;;16.13;;
33006;SDS011;19361;51.598;7.650;2023-06-22T17:00:09;19.50;;;16.48;;
33006;SDS011;19361;51.598;7.650;2023-06-22T17:05:32;20.85;;;17.25;;
33006;SDS011;19361;51.598;7.650;2023-06-22T17:10:53;18.08;;;14.65;;
33006;SDS011;19361;51.598;7.650;2023-06-22T17:16:14;17.52;;;15.73;;
33006;SDS011;19361;51.598;7.650;2023-06-22T17:21:36;16.05;;;13.80;;
33006;SDS011;19361;51.598;7.650;2023-06-22T17:26:57;16.27;;;14.68;;
33006;SDS011;19361;51.598;7.650;2023-06-22T17:32:19;15.70;;;14.10;;
33006;SDS011;19361;51.598;7.650;2023-06-22T17:37:48;16.40;;;14.35;;
33006;SDS011;19361;51.598;7.650;2023-06-22T17:43:13;19.52;;;15.70;;
33006;SDS011;19361;51.598;7.650;2023-06-22T17:48:42;16.98;;;15.13;;
33006;SDS011;19361;51.598;7.650;2023-06-22T17:54:05;16.52;;;14.90;;
33006;SDS011;19361;51.598;7.650;2023-06-22T17:59:28;17.02;;;15.30;;
33006;SDS011;19361;51.598;7.650;2023-06-22T18:04:49;17.63;;;15.80;;
33006;SDS011;19361;51.598;7.650;2023-06-22T18:10:10;16.67;;;14.80;;
33006;SDS011;19361;51.598;7.650;2023-06-22T18:15:32;20.08;;;17.98;;
33006;SDS011;19361;51.598;7.650;2023-06-22T18:20:55;13.88;;;12.48;;
33006;SDS011;19361;51.598;7.650;2023-06-22T18:26:19;6.90;;;6.30;;
33006;SDS011;19361;51.598;7.650;2023-06-22T18:31:44;4.25;;;3.38;;
33006;SDS011;19361;51.598;7.650;2023-06-22T18:37:07;3.83;;;2.83;;
33006;SDS011;19361;51.598;7.650;2023-06-22T18:42:39;3.72;;;2.72;;
33006;SDS011;19361;51.598;7.650;2023-06-22T18:48:05;5.57;;;2.78;;
33006;SDS011;19361;51.598;7.650;2023-06-22T18:53:26;6.28;;;3.50;;
33006;SDS011;19361;51.598;7.650;2023-06-22T18:58:56;8.07;;;4.85;;
33006;SDS011;19361;51.598;7.650;2023-06-22T19:04:17;12.45;;;8.05;;
33006;SDS011;19361;51.598;7.650;2023-06-22T19:09:42;11.50;;;10.20;;
33006;SDS011;19361;51.598;7.650;2023-06-22T19:15:45;14.48;;;13.13;;
33006;SDS011;19361;51.598;7.650;2023-06-22T19:21:20;16.52;;;14.70;;
33006;SDS011;19361;51.598;7.650;2023-06-22T19:26:50;24.45;;;18.58;;
33006;SDS011;19361;51.598;7.650;2023-06-22T19:32:11;22.60;;;20.38;;
33006;SDS011;19361;51.598;7.650;2023-06-22T19:37:32;22.58;;;20.20;;
33006;SDS011;19361;51.598;7.650;2023-06-22T19:42:56;24.27;;;21.65;;
33006;SDS011;19361;51.598;7.650;2023-06-22T19:48:17;22.42;;;20.13;;
33006;SDS011;19361;51.598;7.650;2023-06-22T19:53:41;22.65;;;20.08;;
33006;SDS011;19361;51.598;7.650;2023-06-22T19:59:22;28.42;;;22.02;;
33006;SDS011;19361;51.598;7.650;2023-06-22T20:04:44;21.55;;;19.05;;
33006;SDS011;19361;51.598;7.650;2023-06-22T20:15:31;22.05;;;19.55;;
33006;SDS011;19361;51.598;7.650;2023-06-22T20:20:52;20.83;;;18.73;;
33006;SDS011;19361;51.598;7.650;2023-06-22T20:26:13;19.60;;;17.67;;
33006;SDS011;19361;51.598;7.650;2023-06-22T20:31:37;21.13;;;18.42;;
33006;SDS011;19361;51.598;7.650;2023-06-22T20:36:58;21.00;;;18.80;;
33006;SDS011;19361;51.598;7.650;2023-06-22T20:42:19;21.88;;;19.52;;
33006;SDS011;19361;51.598;7.650;2023-06-22T20:47:40;20.67;;;18.50;;
33006;SDS011;19361;51.598;7.650;2023-06-22T20:53:02;18.23;;;16.33;;
33006;SDS011;19361;51.598;7.650;2023-06-22T20:58:24;18.38;;;16.52;;
33006;SDS011;19361;51.598;7.650;2023-06-22T21:03:45;18.00;;;16.10;;
33006;SDS011;19361;51.598;7.650;2023-06-22T21:09:06;19.30;;;17.25;;
33006;SDS011;19361;51.598;7.650;2023-06-22T21:14:28;19.40;;;17.40;;
33006;SDS011;19361;51.598;7.650;2023-06-22T21:19:49;20.90;;;18.73;;
33006;SDS011;19361;51.598;7.650;2023-06-22T21:25:11;19.13;;;17.23;;
33006;SDS011;19361;51.598;7.650;2023-06-22T21:30:34;17.65;;;15.73;;
33006;SDS011;19361;51.598;7.650;2023-06-22T21:35:55;16.67;;;15.07;;
33006;SDS011;19361;51.598;7.650;2023-06-22T21:41:16;19.02;;;17.23;;
33006;SDS011;19361;51.598;7.650;2023-06-22T21:46:37;17.75;;;15.95;;
33006;SDS011;19361;51.598;7.650;2023-06-22T21:51:58;20.08;;;15.82;;
33006;SDS011;19361;51.598;7.650;2023-06-22T21:57:19;16.55;;;14.82;;
33006;SDS011;19361;51.598;7.650;2023-06-22T22:02:45;16.38;;;14.75;;
33006;SDS011;19361;51.598;7.650;2023-06-22T22:08:06;18.02;;;16.08;;
33006;SDS011;19361;51.598;7.650;2023-06-22T22:13:28;6.53;;;4.20;;
33006;SDS011;19361;51.598;7.650;2023-06-22T22:18:51;3.58;;;2.28;;
33006;SDS011;19361;51.598;7.650;2023-06-22T22:24:12;1.80;;;1.50;;
33006;SDS011;19361;51.598;7.650;2023-06-22T22:29:34;1.60;;;1.50;;
33006;SDS011;19361;51.598;7.650;2023-06-22T22:34:55;1.40;;;1.30;;
33006;SDS011;19361;51.598;7.650;2023-06-22T22:40:16;2.10;;;1.10;;
33006;SDS011;19361;51.598;7.650;2023-06-22T22:45:37;1.48;;;1.38;;
33006;SDS011;19361;51.598;7.650;2023-06-22T22:50:59;1.65;;;1.55;;
33006;SDS011;19361;51.598;7.650;2023-06-22T22:56:21;3.60;;;3.13;;
33006;SDS011;19361;51.598;7.650;2023-06-22T23:01:43;4.70;;;4.03;;
33006;SDS011;19361;51.598;7.650;2023-06-22T23:07:04;4.93;;;4.60;;
33006;SDS011;19361;51.598;7.650;2023-06-22T23:12:26;8.57;;;5.22;;
33006;SDS011;19361;51.598;7.650;2023-06-22T23:17:48;9.30;;;5.55;;
33006;SDS011;19361;51.598;7.650;2023-06-22T23:23:09;8.23;;;5.90;;
33006;SDS011;19361;51.598;7.650;2023-06-22T23:28:30;7.20;;;6.03;;
33006;SDS011;19361;51.598;7.650;2023-06-22T23:33:51;6.25;;;5.65;;
33006;SDS011;19361;51.598;7.650;2023-06-22T23:39:13;6.22;;;5.65;;
33006;SDS011;19361;51.598;7.650;2023-06-22T23:44:35;5.90;;;5.30;;
33006;SDS011;19361;51.598;7.650;2023-06-22T23:49:57;7.38;;;5.53;;
33006;SDS011;19361;51.598;7.650;2023-06-22T23:55:18;5.97;;;5.38;;
